Time;durP1;ratioP1;P1;durP2;ratioP2;P2;SDS_P1;SDS_P2;PMS_P1;PMS_P2;Temp;Humidity;BMP_temperature;BMP_pressure;BME280_temperature;BME280_humidity;BME280_pressure;Samples;Min_cycle;Max_cycle;Signal;HPM_P1;HPM_P2
2022/07/11 00:02:01;;;;;;;8.25;2.53;;;;;;;18.26;52.95;100587.53;10464994;28;20120;-67
2022/07/11 00:07:05;;;;;;;5.65;2.20;;;;;;;18.26;52.83;100584.88;10468021;28;20052;-67
2022/07/11 00:12:08;;;;;;;5.90;2.20;;;;;;;18.20;53.04;100580.06;10469044;28;20130;-67
2022/07/11 00:17:10;;;;;;;4.93;2.28;;;;;;;18.15;53.29;100588.34;10468068;28;20098;-67
2022/07/11 00:22:12;;;;;;;4.82;2.45;;;;;;;18.06;53.52;100580.28;10467831;28;20072;-67
2022/07/11 00:27:14;;;;;;;4.43;2.30;;;;;;;17.90;53.77;100582.47;10467073;28;20892;-67
2022/07/11 00:32:15;;;;;;;4.80;2.50;;;;;;;17.70;54.31;100578.78;10468956;28;20049;-67
2022/07/11 00:37:17;;;;;;;4.47;2.38;;;;;;;17.72;54.30;100571.56;10468007;28;20131;-67
2022/07/11 00:42:19;;;;;;;4.32;2.22;;;;;;;17.58;54.83;100570.03;10461143;28;20130;-67
2022/07/11 00:47:21;;;;;;;6.47;2.53;;;;;;;17.68;54.65;100565.69;10466700;28;20469;-68
2022/07/11 00:52:23;;;;;;;3.97;2.20;;;;;;;17.77;54.46;100564.94;10467287;28;20048;-67
2022/07/11 00:57:25;;;;;;;4.32;2.20;;;;;;;17.79;54.60;100560.38;10466415;28;20114;-67
2022/07/11 01:02:27;;;;;;;3.85;2.30;;;;;;;17.83;54.52;100551.22;10460794;28;20358;-67
2022/07/11 01:07:29;;;;;;;5.18;2.17;;;;;;;17.81;54.82;100547.84;10465482;28;20079;-67
2022/07/11 01:12:31;;;;;;;8.75;2.47;;;;;;;17.79;54.73;100544.50;10465053;28;20658;-67
2022/07/11 01:17:33;;;;;;;6.07;2.45;;;;;;;17.82;54.66;100543.41;10465248;28;20122;-67
2022/07/11 01:22:39;;;;;;;7.60;2.45;;;;;;;17.83;54.83;100545.94;10458403;28;20076;-67
2022/07/11 01:27:41;;;;;;;5.70;2.40;;;;;;;17.75;54.74;100536.94;10461877;28;20257;-67
2022/07/11 01:32:43;;;;;;;6.78;2.97;;;;;;;17.61;55.18;100540.66;10463948;28;20143;-66
2022/07/11 01:37:45;;;;;;;9.98;2.72;;;;;;;17.56;55.26;100526.97;10436771;28;20139;-67
2022/07/11 01:42:47;;;;;;;5.22;2.65;;;;;;;17.59;55.06;100526.72;10464583;28;20139;-67
2022/07/11 01:47:49;;;;;;;4.75;2.33;;;;;;;17.54;55.40;100523.63;10437771;28;20187;-67
2022/07/11 01:52:51;;;;;;;7.20;2.65;;;;;;;17.49;55.51;100520.47;10463796;28;20721;-68
2022/07/11 01:57:52;;;;;;;5.20;2.53;;;;;;;17.48;55.85;100525.91;10463677;28;20476;-68
2022/07/11 02:02:54;;;;;;;5.65;2.33;;;;;;;17.59;55.27;100517.94;10469478;28;20051;-68
2022/07/11 02:08:11;;;;;;;7.40;2.45;;;;;;;17.55;55.42;100517.34;10469277;28;20155;-68
2022/07/11 02:13:15;;;;;;;7.57;2.58;;;;;;;17.60;55.50;100512.56;10472852;28;20109;-68
2022/07/11 02:18:18;;;;;;;5.95;2.42;;;;;;;17.52;55.70;100506.19;10471922;28;20071;-68
2022/07/11 02:23:20;;;;;;;6.97;2.50;;;;;;;17.51;55.58;100507.97;10452148;28;20127;-68
2022/07/11 02:28:22;;;;;;;4.43;2.30;;;;;;;17.58;55.54;100508.34;10453227;28;20056;-68
2022/07/11 02:33:24;;;;;;;4.60;2.30;;;;;;;17.57;55.64;100496.91;10473574;28;20067;-67
2022/07/11 02:38:26;;;;;;;5.95;2.60;;;;;;;17.47;55.93;100501.25;10471667;28;20751;-68
2022/07/11 02:43:28;;;;;;;4.25;2.20;;;;;;;17.31;56.35;100516.59;10459991;28;20052;-67
2022/07/11 02:48:31;;;;;;;5.90;2.50;;;;;;;17.34;56.21;100505.00;10480830;28;20476;-67
2022/07/11 02:53:33;;;;;;;5.72;2.58;;;;;;;17.40;55.86;100502.72;10480314;28;20103;-66
2022/07/11 02:58:34;;;;;;;5.05;2.40;;;;;;;17.51;55.56;100513.25;10477679;28;21014;-67
2022/07/11 03:03:36;;;;;;;7.35;2.25;;;;;;;17.55;55.64;100501.47;10475320;28;20052;-68
2022/07/11 03:08:39;;;;;;;5.18;2.40;;;;;;;17.56;55.77;100507.63;10474900;28;20052;-66
2022/07/11 03:13:41;;;;;;;5.20;2.40;;;;;;;17.58;55.59;100517.13;10439992;28;20135;-67
2022/07/11 03:18:43;;;;;;;6.80;2.58;;;;;;;17.58;55.81;100518.91;10474874;28;20135;-67
2022/07/11 03:23:45;;;;;;;4.18;2.33;;;;;;;17.46;56.12;100520.75;10472225;28;20106;-68
2022/07/11 03:28:46;;;;;;;5.50;3.00;;;;;;;17.52;55.88;100520.25;10472272;28;20471;-68
2022/07/11 03:33:48;;;;;;;4.63;2.42;;;;;;;17.51;56.16;100520.34;10472959;28;20049;-67
2022/07/11 03:38:50;;;;;;;6.55;2.53;;;;;;;17.39;56.40;100513.38;10455994;28;20092;-67
2022/07/11 03:43:51;;;;;;;4.72;2.45;;;;;;;17.27;56.71;100520.47;10471382;28;20127;-67
2022/07/11 03:48:53;;;;;;;4.85;2.58;;;;;;;17.47;56.46;100509.19;10472442;28;20143;-67
2022/07/11 03:53:55;;;;;;;6.75;2.45;;;;;;;17.59;56.05;100520.59;10472650;28;20547;-67
2022/07/11 03:58:57;;;;;;;5.20;2.58;;;;;;;17.49;56.66;100520.47;10470947;28;20131;-67
2022/07/11 04:03:59;;;;;;;5.22;2.40;;;;;;;17.52;56.60;100519.41;10471308;28;20045;-67
2022/07/11 04:09:01;;;;;;;4.45;2.38;;;;;;;17.53;56.69;100511.34;10471551;28;20130;-67
2022/07/11 04:14:02;;;;;;;5.30;2.40;;;;;;;17.59;56.76;100512.66;10470892;28;20092;-66
2022/07/11 04:19:04;;;;;;;5.03;2.70;;;;;;;17.74;56.65;100504.34;10471301;28;21031;-66
2022/07/11 04:24:06;;;;;;;6.72;2.55;;;;;;;17.94;55.75;100509.81;10471400;28;20143;-66
2022/07/11 04:29:07;;;;;;;4.53;2.28;;;;;;;17.98;55.24;100509.44;10470346;28;20128;-66
2022/07/11 04:34:09;;;;;;;5.13;2.40;;;;;;;17.91;55.30;100508.28;10470762;28;21009;-66
2022/07/11 04:39:11;;;;;;;9.75;2.65;;;;;;;17.99;55.19;100516.44;10471061;28;20095;-66
2022/07/11 04:44:13;;;;;;;6.78;2.50;;;;;;;17.82;55.35;100520.44;10471122;28;20098;-66
2022/07/11 04:49:15;;;;;;;5.18;2.78;;;;;;;17.74;55.71;100522.03;10469870;28;20243;-66
2022/07/11 04:54:17;;;;;;;4.68;2.45;;;;;;;17.89;55.85;100527.88;10468565;28;20390;-66
2022/07/11 04:59:18;;;;;;;8.50;2.70;;;;;;;17.99;55.63;100528.81;10469914;28;20048;-68
2022/07/11 05:04:20;;;;;;;7.43;2.50;;;;;;;18.27;54.71;100530.94;10467706;28;20053;-67
2022/07/11 05:09:22;;;;;;;5.82;2.20;;;;;;;18.51;54.29;100531.56;10469608;28;20600;-66
2022/07/11 05:14:23;;;;;;;6.22;2.47;;;;;;;18.65;53.91;100547.97;10468989;28;20137;-67
2022/07/11 05:19:25;;;;;;;3.70;2.30;;;;;;;18.68;53.84;100538.94;10467853;28;20106;-67
2022/07/11 05:24:27;;;;;;;7.55;2.47;;;;;;;18.70;54.49;100537.00;10467265;28;20072;-67
2022/07/11 05:29:29;;;;;;;5.88;2.40;;;;;;;18.77;54.00;100530.22;10466957;28;20140;-68
2022/07/11 05:34:30;;;;;;;4.25;2.55;;;;;;;18.71;54.44;100549.28;10467518;28;20497;-69
2022/07/11 05:39:32;;;;;;;4.38;2.40;;;;;;;18.78;54.28;100557.56;10467541;28;20167;-67
2022/07/11 05:44:34;;;;;;;5.93;2.22;;;;;;;18.77;54.67;100554.06;10467930;28;20106;-67
2022/07/11 05:49:35;;;;;;;6.32;3.17;;;;;;;18.85;53.85;100559.56;10468011;28;20574;-67
2022/07/11 05:54:37;;;;;;;9.15;2.72;;;;;;;18.98;53.31;100556.72;10466661;28;20132;-67
2022/07/11 05:59:39;;;;;;;7.22;3.10;;;;;;;19.13;53.13;100558.09;10466046;28;20171;-67
2022/07/11 06:04:42;;;;;;;8.07;3.45;;;;;;;19.28;52.65;100559.44;10465260;28;20061;-68
2022/07/11 06:09:44;;;;;;;10.65;3.38;;;;;;;19.36;52.30;100549.84;10449178;28;20198;-67
2022/07/11 06:14:46;;;;;;;7.47;3.40;;;;;;;19.32;52.46;100548.44;10465689;28;20123;-69
2022/07/11 06:19:48;;;;;;;7.43;3.45;;;;;;;19.43;51.76;100542.19;10466894;28;20092;-68
2022/07/11 06:24:50;;;;;;;6.63;3.83;;;;;;;19.52;51.56;100548.53;10439189;28;20080;-67
2022/07/11 06:29:52;;;;;;;12.35;4.22;;;;;;;19.50;51.58;100550.47;10465965;28;20064;-67
2022/07/11 06:34:54;;;;;;;7.00;3.75;;;;;;;19.51;51.38;100555.63;10465571;28;20496;-67
2022/07/11 06:39:55;;;;;;;9.50;4.50;;;;;;;19.50;51.53;100561.94;10448873;28;20906;-68
2022/07/11 06:44:57;;;;;;;11.27;4.07;;;;;;;19.28;52.12;100554.97;10446024;28;20045;-67
2022/07/11 06:49:59;;;;;;;9.60;4.10;;;;;;;19.25;51.98;100565.84;10465511;28;20135;-67
2022/07/11 06:55:02;;;;;;;10.45;3.63;;;;;;;19.25;52.20;100563.22;10432898;28;20059;-66
2022/07/11 07:00:06;;;;;;;9.07;3.33;;;;;;;19.15;52.42;100561.47;10465976;28;20084;-80
2022/07/11 07:05:09;;;;;;;10.00;3.42;;;;;;;19.31;51.88;100561.84;10457793;28;20575;-81
2022/07/11 07:10:14;;;;;;;7.95;3.03;;;;;;;19.44;52.04;100565.09;10465390;28;20052;-81
2022/07/11 07:15:16;;;;;;;7.90;2.75;;;;;;;19.48;51.84;100564.69;10461950;28;20646;-81
2022/07/11 07:20:18;;;;;;;9.82;3.10;;;;;;;19.52;52.04;100567.09;10461459;28;20098;-81
2022/07/11 07:25:20;;;;;;;7.53;2.75;;;;;;;19.48;51.72;100565.69;10465803;28;20389;-81
2022/07/11 07:30:22;;;;;;;9.80;3.00;;;;;;;19.46;51.77;100569.28;10470342;28;20045;-79
2022/07/11 07:35:24;;;;;;;7.15;2.85;;;;;;;19.68;51.18;100576.25;10466266;28;20138;-80
2022/07/11 07:40:26;;;;;;;7.20;2.80;;;;;;;20.00;50.92;100579.59;10457998;28;20179;-81
2022/07/11 07:45:29;;;;;;;6.55;2.60;;;;;;;20.41;50.26;100578.53;10470901;28;20575;-81
2022/07/11 07:50:30;;;;;;;6.03;3.10;;;;;;;20.50;49.91;100577.69;10470173;28;20053;-82
2022/07/11 07:55:32;;;;;;;10.60;3.20;;;;;;;20.62;49.11;100581.91;10470536;28;20564;-82
2022/07/11 08:05:55;;;;;;;7.60;2.75;;;;;;;21.26;48.12;100576.81;10469971;28;20095;-80
2022/07/11 08:11:00;;;;;;;10.07;2.97;;;;;;;21.13;47.75;100583.44;10470447;28;20135;-76
2022/07/11 08:16:22;;;;;;;8.23;2.92;;;;;;;21.09;47.84;100581.03;10473314;28;20052;-79
2022/07/11 08:21:25;;;;;;;6.22;3.00;;;;;;;21.29;47.67;100586.34;10469378;28;20098;-80
2022/07/11 08:26:27;;;;;;;4.05;2.75;;;;;;;21.02;47.14;100595.06;10473304;28;20552;-76
2022/07/11 08:31:36;;;;;;;6.45;3.05;;;;;;;20.78;47.78;100597.31;10469888;28;20048;-79
2022/07/11 08:36:38;;;;;;;5.57;2.63;;;;;;;20.86;47.29;100587.66;10478001;28;20059;-80
2022/07/11 08:41:44;;;;;;;7.05;3.08;;;;;;;21.02;47.06;100585.28;10469261;28;20045;-80
2022/07/11 08:46:47;;;;;;;7.28;2.80;;;;;;;21.13;46.63;100596.72;10457680;28;20143;-80
2022/07/11 08:51:49;;;;;;;4.78;2.78;;;;;;;21.04;46.87;100588.63;10439267;28;20041;-80
2022/07/11 08:56:52;;;;;;;4.28;2.50;;;;;;;21.24;46.88;100583.25;10467448;28;20056;-79
2022/07/11 09:01:58;;;;;;;5.75;2.60;;;;;;;21.83;45.35;100592.59;10468357;28;20048;-80
2022/07/11 09:07:01;;;;;;;6.65;2.40;;;;;;;22.38;44.27;100580.09;10450927;28;20052;-79
2022/07/11 09:12:14;;;;;;;4.68;2.50;;;;;;;22.31;43.82;100572.88;10456745;28;20521;-79
2022/07/11 09:17:25;;;;;;;5.30;2.30;;;;;;;22.37;44.10;100577.59;10435642;28;20139;-79
2022/07/11 09:27:52;;;;;;;6.05;2.92;;;;;;;22.23;44.18;100565.59;10441864;28;20044;-80
2022/07/11 09:33:05;;;;;;;6.35;3.00;;;;;;;22.46;43.75;100560.66;10427999;28;20262;-80
2022/07/11 09:38:12;;;;;;;4.03;2.42;;;;;;;23.27;41.54;100549.66;10452110;28;20045;-80
2022/07/11 09:43:23;;;;;;;4.10;2.05;;;;;;;23.97;39.51;100547.66;10465015;28;20078;-80
2022/07/11 09:48:29;;;;;;;3.40;2.35;;;;;;;24.22;37.92;100547.63;10448294;28;20082;-81
2022/07/11 09:53:34;;;;;;;3.50;2.30;;;;;;;24.32;38.30;100550.13;10463881;28;20048;-80
2022/07/11 09:58:37;;;;;;;7.82;2.50;;;;;;;24.77;38.06;100553.19;10466796;28;20141;-79
2022/07/11 10:03:39;;;;;;;3.95;2.28;;;;;;;24.93;37.34;100560.38;10463544;28;20096;-80
2022/07/11 10:08:58;;;;;;;3.93;2.20;;;;;;;24.95;37.18;100556.53;10462500;28;20052;-80
2022/07/11 10:14:01;;;;;;;11.95;2.80;;;;;;;24.47;37.71;100559.16;10441478;28;20127;-81
2022/07/11 10:19:05;;;;;;;5.97;2.47;;;;;;;24.30;38.50;100554.81;10461028;28;20083;-79
2022/07/11 10:24:30;;;;;;;4.70;2.40;;;;;;;24.53;37.98;100557.66;10461525;28;20386;-81
2022/07/11 10:29:44;;;;;;;4.47;2.50;;;;;;;24.55;37.77;100558.34;10461057;28;20127;-81
2022/07/11 10:35:06;;;;;;;5.80;2.47;;;;;;;24.04;38.59;100560.19;10459638;28;20053;-74
2022/07/11 10:40:08;;;;;;;4.00;2.53;;;;;;;23.75;39.90;100561.63;10458670;28;20056;-82
2022/07/11 10:45:11;;;;;;;5.40;2.67;;;;;;;23.83;39.97;100565.16;10432608;28;20049;-82
2022/07/11 10:50:18;;;;;;;6.20;2.50;;;;;;;24.29;39.30;100559.31;10461803;28;20067;-82
2022/07/11 10:55:32;;;;;;;4.47;2.40;;;;;;;24.56;38.72;100552.81;10443779;28;20423;-82
2022/07/11 11:00:35;;;;;;;3.53;2.20;;;;;;;24.67;38.85;100551.66;10461423;28;20455;-82
2022/07/11 11:05:48;;;;;;;4.75;2.30;;;;;;;24.86;37.70;100551.31;10468427;28;20080;-83
2022/07/11 11:10:50;;;;;;;4.43;2.45;;;;;;;24.65;38.39;100559.00;10469958;28;20189;-82
2022/07/11 11:15:57;;;;;;;4.80;2.38;;;;;;;24.35;38.21;100556.97;10430952;28;20048;-83
2022/07/11 11:20:59;;;;;;;4.90;2.60;;;;;;;24.36;38.85;100558.63;10465198;28;20802;-77
2022/07/11 11:26:07;;;;;;;4.97;2.28;;;;;;;24.60;38.12;100562.19;10464290;28;20571;-78
2022/07/11 11:31:09;;;;;;;3.38;1.95;;;;;;;24.92;36.96;100558.69;10465285;28;20187;-79
2022/07/11 11:36:11;;;;;;;2.83;2.00;;;;;;;25.27;36.58;100550.28;10454508;28;20051;-82
2022/07/11 11:41:30;;;;;;;4.05;2.20;;;;;;;25.74;36.09;100551.16;10433325;28;20076;-78
2022/07/11 11:46:36;;;;;;;3.35;2.30;;;;;;;25.71;36.25;100554.16;10463002;28;20144;-79
2022/07/11 11:51:39;;;;;;;5.53;2.53;;;;;;;26.04;35.75;100556.75;10464770;28;20189;-79
2022/07/11 11:56:41;;;;;;;3.97;2.65;;;;;;;26.18;35.44;100553.31;10460681;28;20172;-79
2022/07/11 12:01:48;;;;;;;3.78;2.70;;;;;;;25.96;35.50;100549.56;10466103;28;20179;-80
2022/07/11 12:06:50;;;;;;;4.35;3.10;;;;;;;25.97;36.40;100553.09;10448675;28;20591;-80
2022/07/11 12:17:15;;;;;;;5.60;3.58;;;;;;;25.72;36.42;100560.38;10434189;28;20055;-80
2022/07/11 12:22:17;;;;;;;5.22;3.40;;;;;;;25.92;36.35;100552.75;10442295;28;20151;-79
2022/07/11 12:27:25;;;;;;;5.32;3.50;;;;;;;25.80;36.20;100553.13;10461750;28;20130;-78
2022/07/11 12:32:26;;;;;;;6.25;3.95;;;;;;;25.47;37.43;100562.28;10461811;28;20674;-79
2022/07/11 12:37:37;;;;;;;4.05;3.45;;;;;;;25.59;36.96;100558.22;10461156;28;20143;-78
2022/07/11 12:42:39;;;;;;;6.47;3.80;;;;;;;25.42;37.45;100556.63;10463483;28;20510;-78
2022/07/11 12:47:49;;;;;;;6.75;3.50;;;;;;;25.59;37.37;100552.88;10462975;28;20102;-79
2022/07/11 12:52:56;;;;;;;4.80;3.47;;;;;;;25.64;36.78;100552.38;10465040;28;20052;-79
2022/07/11 12:58:05;;;;;;;5.45;3.83;;;;;;;25.47;37.24;100554.25;10466209;28;20048;-79
2022/07/11 13:03:08;;;;;;;6.57;3.70;;;;;;;25.58;37.35;100551.22;10461527;28;20055;-80
2022/07/11 13:08:45;;;;;;;7.43;3.83;;;;;;;26.02;36.94;100550.72;10463403;28;20421;-80
2022/07/11 13:13:48;;;;;;;5.57;3.58;;;;;;;26.11;36.99;100538.94;10433161;28;20132;-80
2022/07/11 13:18:50;;;;;;;7.25;3.45;;;;;;;26.04;37.19;100535.31;10462188;28;20649;-82
2022/07/11 13:23:53;;;;;;;8.68;3.45;;;;;;;25.90;37.50;100537.69;10438625;28;20054;-80
2022/07/11 13:28:54;;;;;;;7.28;3.55;;;;;;;25.86;36.95;100536.34;10462390;28;20473;-81
2022/07/11 13:33:56;;;;;;;6.57;3.45;;;;;;;25.67;37.13;100544.00;10461564;28;20135;-81
2022/07/11 13:38:58;;;;;;;4.55;3.53;;;;;;;26.08;36.64;100536.63;10446155;28;20084;-80
2022/07/11 13:44:00;;;;;;;6.57;3.30;;;;;;;26.30;36.41;100535.81;10465182;28;20052;-81
2022/07/11 13:49:02;;;;;;;5.35;3.05;;;;;;;25.83;36.98;100534.00;10462520;28;20813;-79
2022/07/11 13:54:04;;;;;;;5.63;2.90;;;;;;;25.72;37.10;100533.56;10465808;28;20075;-81
2022/07/11 13:59:05;;;;;;;3.85;2.75;;;;;;;25.76;36.10;100534.91;10461643;28;20123;-82
2022/07/11 14:04:07;;;;;;;3.95;2.67;;;;;;;25.87;36.31;100539.88;10463070;28;20099;-82
2022/07/11 14:09:09;;;;;;;5.10;2.58;;;;;;;25.88;36.21;100536.16;10443640;28;20056;-80
2022/07/11 14:14:11;;;;;;;5.35;2.55;;;;;;;26.00;35.92;100528.63;10453181;28;20682;-79
2022/07/11 14:19:13;;;;;;;4.18;2.53;;;;;;;25.92;35.71;100539.34;10455531;28;20075;-81
2022/07/11 14:24:15;;;;;;;3.33;2.10;;;;;;;25.69;35.66;100533.94;10448661;28;20044;-80
2022/07/11 14:29:17;;;;;;;3.75;2.30;;;;;;;25.47;36.28;100535.50;10465310;28;20049;-79
2022/07/11 14:34:23;;;;;;;3.67;2.47;;;;;;;25.82;36.19;100531.50;10448780;28;20098;-79
2022/07/11 14:39:24;;;;;;;3.28;2.22;;;;;;;26.13;35.57;100534.22;10448745;28;20048;-78
2022/07/11 14:44:27;;;;;;;4.00;2.50;;;;;;;25.99;36.14;100529.63;10467698;28;20056;-80
2022/07/11 14:49:29;;;;;;;4.35;2.67;;;;;;;26.00;36.28;100536.66;10468119;28;20055;-79
2022/07/11 14:54:30;;;;;;;3.88;2.67;;;;;;;25.48;36.88;100539.88;10467108;28;20084;-80
2022/07/11 14:59:32;;;;;;;5.47;2.67;;;;;;;25.25;37.51;100541.56;10471230;28;20102;-79
2022/07/11 15:04:34;;;;;;;5.65;3.30;;;;;;;25.31;37.51;100540.03;10464532;28;20052;-79
2022/07/11 15:14:57;;;;;;;5.03;3.10;;;;;;;25.29;38.13;100536.69;10463736;28;20087;-78
2022/07/11 15:19:59;;;;;;;7.72;2.80;;;;;;;25.17;38.31;100538.06;10465777;28;20056;-79
2022/07/11 15:25:00;;;;;;;4.28;2.65;;;;;;;24.83;38.32;100541.81;10464352;28;20100;-79
2022/07/11 15:30:02;;;;;;;4.15;2.38;;;;;;;24.53;38.74;100546.97;10465364;28;20053;-80
2022/07/11 15:35:06;;;;;;;6.03;2.42;;;;;;;24.40;38.69;100546.63;10453329;28;20932;-78
2022/07/11 15:40:09;;;;;;;4.05;2.60;;;;;;;24.46;39.09;100548.63;10444929;28;20055;-82
2022/07/11 15:45:13;;;;;;;4.80;2.60;;;;;;;24.58;39.11;100549.97;10458196;28;20128;-82
2022/07/11 15:50:15;;;;;;;3.40;2.35;;;;;;;25.12;38.52;100530.56;10442229;28;20510;-82
2022/07/11 15:55:17;;;;;;;5.40;2.38;;;;;;;25.45;37.55;100537.53;10470870;28;20076;-82
2022/07/11 16:00:20;;;;;;;4.35;2.58;;;;;;;25.56;37.00;100530.97;10449232;28;20417;-82
2022/07/11 16:05:22;;;;;;;3.00;2.10;;;;;;;25.80;36.50;100515.63;10467107;28;21174;-82
2022/07/11 16:10:24;;;;;;;4.30;2.17;;;;;;;25.31;36.15;100527.50;10467883;28;20145;-81
2022/07/11 16:15:26;;;;;;;3.58;2.00;;;;;;;25.08;37.04;100523.91;10477842;28;20053;-82
2022/07/11 16:20:28;;;;;;;5.13;2.10;;;;;;;24.99;36.57;100531.09;10476086;28;20092;-82
2022/07/11 16:25:30;;;;;;;2.60;1.77;;;;;;;24.94;36.56;100520.06;10484248;28;20052;-83
2022/07/11 16:30:32;;;;;;;4.65;1.90;;;;;;;25.00;36.50;100521.22;10471030;28;20153;-81
2022/07/11 16:35:34;;;;;;;2.53;1.92;;;;;;;24.60;37.03;100521.22;10450191;28;20079;-80
2022/07/11 16:45:57;;;;;;;4.45;1.90;;;;;;;24.56;36.88;100530.56;10466316;28;20206;-79
2022/07/11 16:51:01;;;;;;;6.22;2.00;;;;;;;24.37;37.71;100522.91;10466469;28;20053;-79
2022/07/11 16:56:04;;;;;;;3.17;2.00;;;;;;;24.22;37.84;100528.06;10469204;28;20610;-79
2022/07/11 17:01:07;;;;;;;4.05;1.98;;;;;;;24.16;38.23;100518.84;10449932;28;20463;-81
2022/07/11 17:06:11;;;;;;;4.40;1.92;;;;;;;24.15;38.44;100524.34;10469629;28;20052;-80
2022/07/11 17:11:15;;;;;;;4.68;1.98;;;;;;;23.82;38.28;100518.06;10472315;28;20485;-81
2022/07/11 17:16:16;;;;;;;4.28;1.95;;;;;;;23.42;38.97;100523.25;10474225;28;20131;-80
2022/07/11 17:21:18;;;;;;;4.15;1.95;;;;;;;23.09;39.80;100522.19;10444055;28;20068;-81
2022/07/11 17:26:20;;;;;;;3.50;2.10;;;;;;;22.85;39.54;100522.03;10480664;28;20083;-80
2022/07/11 17:31:24;;;;;;;4.38;2.15;;;;;;;22.62;40.97;100535.00;10478795;28;20806;-81
2022/07/11 17:36:27;;;;;;;4.40;1.80;;;;;;;22.71;40.41;100530.56;10468278;28;20130;-82
2022/07/11 17:41:28;;;;;;;8.93;2.35;;;;;;;22.99;39.94;100531.28;10465878;28;20124;-82
2022/07/11 17:46:30;;;;;;;3.83;1.85;;;;;;;23.39;39.33;100531.56;10448806;28;20044;-82
2022/07/11 17:51:32;;;;;;;2.83;1.73;;;;;;;23.52;39.64;100528.44;10469502;28;20122;-82
2022/07/11 17:56:34;;;;;;;3.47;2.17;;;;;;;23.39;40.33;100528.88;10470377;28;20106;-79
2022/07/11 18:01:36;;;;;;;4.05;2.60;;;;;;;23.18;40.57;100523.09;10456212;28;20048;-80
2022/07/11 18:06:37;;;;;;;3.35;2.10;;;;;;;23.35;40.55;100519.53;10477703;28;20122;-80
2022/07/11 18:11:39;;;;;;;3.50;2.30;;;;;;;23.40;40.60;100512.72;10474284;28;20100;-80
2022/07/11 18:16:41;;;;;;;7.05;2.40;;;;;;;23.57;40.63;100523.50;10471118;28;20688;-80
2022/07/11 18:21:43;;;;;;;3.65;2.20;;;;;;;23.71;40.53;100514.84;10474181;28;20568;-79
2022/07/11 18:26:49;;;;;;;6.40;2.50;;;;;;;23.76;40.06;100518.72;10472325;28;20052;-79
2022/07/11 18:31:52;;;;;;;4.07;2.30;;;;;;;23.55;40.58;100529.00;10463336;28;20049;-79
2022/07/11 18:36:53;;;;;;;3.83;2.53;;;;;;;23.34;41.16;100526.69;10463945;28;20053;-79
2022/07/11 18:41:55;;;;;;;5.32;2.58;;;;;;;23.14;41.59;100533.25;10481802;28;20086;-79
2022/07/11 18:46:57;;;;;;;4.80;2.55;;;;;;;22.94;42.10;100544.28;10490387;28;20051;-79
2022/07/11 18:52:00;;;;;;;4.43;3.00;;;;;;;22.92;42.40;100543.59;10479770;28;20103;-80
2022/07/11 18:57:02;;;;;;;4.22;3.25;;;;;;;22.86;42.61;100549.56;10462786;28;20056;-80
2022/07/11 19:02:04;;;;;;;4.72;3.70;;;;;;;22.67;43.05;100550.53;10468888;28;20121;-81
2022/07/11 19:07:06;;;;;;;4.30;3.50;;;;;;;22.46;43.68;100550.84;10469419;28;20516;-81
2022/07/11 19:12:08;;;;;;;4.57;3.90;;;;;;;22.26;44.27;100556.47;10466714;28;20052;-81
2022/07/11 19:17:09;;;;;;;5.13;3.60;;;;;;;22.09;44.71;100552.81;10466725;28;20053;-67
2022/07/11 19:22:13;;;;;;;7.22;4.00;;;;;;;21.90;44.98;100551.06;10464290;28;20127;-68
2022/07/11 19:27:15;;;;;;;4.45;3.88;;;;;;;21.75;45.50;100557.88;10470606;28;20094;-68
2022/07/11 19:32:16;;;;;;;6.72;4.13;;;;;;;21.60;45.86;100570.00;10469676;28;20076;-67
2022/07/11 19:37:19;;;;;;;6.60;4.00;;;;;;;21.48;46.17;100570.31;10471442;28;20044;-67
2022/07/11 19:42:21;;;;;;;5.20;3.90;;;;;;;21.41;46.43;100571.91;10462755;28;20077;-67
2022/07/11 19:47:22;;;;;;;7.85;4.03;;;;;;;21.29;46.70;100576.53;10467975;28;20048;-68
2022/07/11 19:52:24;;;;;;;5.20;4.30;;;;;;;21.15;46.97;100576.16;10472734;28;20151;-67
2022/07/11 19:57:26;;;;;;;5.82;4.22;;;;;;;20.96;47.59;100587.66;10472399;28;20144;-66
2022/07/11 20:02:28;;;;;;;5.30;4.32;;;;;;;20.75;48.10;100587.81;10467298;28;20052;-67
2022/07/11 20:07:30;;;;;;;8.07;5.20;;;;;;;20.46;48.93;100589.56;10463392;28;20060;-67
2022/07/11 20:12:32;;;;;;;6.15;4.88;;;;;;;20.34;49.44;100593.34;10467025;28;20097;-67
2022/07/11 20:17:34;;;;;;;8.25;4.90;;;;;;;20.23;49.43;100588.16;10466587;28;20157;-67
2022/07/11 20:22:35;;;;;;;6.65;5.28;;;;;;;19.80;50.13;100598.22;10468958;28;20072;-67
2022/07/11 20:27:37;;;;;;;7.07;5.82;;;;;;;18.80;51.61;100611.28;10466786;28;20495;-67
2022/07/11 20:32:39;;;;;;;6.97;5.60;;;;;;;18.62;52.43;100619.78;10464602;28;20444;-67
2022/07/11 20:37:41;;;;;;;6.18;5.20;;;;;;;18.78;52.72;100615.84;10468628;28;20141;-67
2022/07/11 20:42:44;;;;;;;7.90;5.85;;;;;;;18.94;52.72;100617.09;10467506;28;20110;-67
2022/07/11 20:47:45;;;;;;;8.48;6.05;;;;;;;18.89;53.17;100613.16;10443940;28;20566;-67
2022/07/11 20:52:47;;;;;;;9.68;6.57;;;;;;;18.51;53.95;100626.91;10468842;28;20048;-67
2022/07/11 20:57:51;;;;;;;6.85;6.00;;;;;;;18.42;54.11;100622.38;10467950;28;20143;-67
2022/07/11 21:02:54;;;;;;;7.72;6.32;;;;;;;18.37;54.54;100628.03;10448565;28;20060;-67
2022/07/11 21:07:56;;;;;;;6.40;5.70;;;;;;;18.40;54.75;100632.25;10467734;28;20143;-68
2022/07/11 21:12:57;;;;;;;7.18;5.95;;;;;;;18.46;54.49;100623.81;10458117;28;20057;-67
2022/07/11 21:17:59;;;;;;;7.13;6.10;;;;;;;18.52;54.44;100632.06;10467983;28;20546;-67
2022/07/11 21:23:01;;;;;;;6.68;5.97;;;;;;;18.55;54.38;100629.19;10447496;28;20094;-67
2022/07/11 21:28:04;;;;;;;7.68;6.28;;;;;;;18.44;54.44;100637.16;10466051;28;20118;-67
2022/07/11 21:33:09;;;;;;;8.05;6.13;;;;;;;18.41;54.66;100636.56;10448249;28;20040;-67
2022/07/11 21:38:11;;;;;;;8.55;6.13;;;;;;;18.36;54.87;100644.88;10465116;28;20163;-66
2022/07/11 21:43:14;;;;;;;8.68;6.53;;;;;;;18.32;55.00;100653.22;10466431;28;20040;-67
2022/07/11 21:48:17;;;;;;;6.70;5.78;;;;;;;18.23;55.37;100649.50;10465643;28;20385;-67
2022/07/11 21:53:20;;;;;;;7.40;6.50;;;;;;;18.24;55.21;100651.16;10463742;28;20068;-67
2022/07/11 21:58:22;;;;;;;7.00;6.22;;;;;;;18.13;55.66;100655.63;10446052;28;20044;-67
2022/07/11 22:03:23;;;;;;;7.40;6.40;;;;;;;18.03;55.82;100662.59;10445866;28;21018;-67
2022/07/11 22:08:25;;;;;;;8.27;6.47;;;;;;;17.91;55.96;100661.78;10466409;28;20159;-67
2022/07/11 22:13:27;;;;;;;7.47;6.00;;;;;;;17.76;56.18;100660.31;10441855;28;20048;-67
2022/07/11 22:18:29;;;;;;;7.65;6.60;;;;;;;17.61;56.79;100664.13;10466158;28;20059;-67
2022/07/11 22:23:30;;;;;;;8.18;6.80;;;;;;;17.52;57.02;100667.50;10444499;28;20127;-67
2022/07/11 22:28:32;;;;;;;7.60;6.68;;;;;;;17.48;57.21;100672.19;10464959;28;20453;-67
2022/07/11 22:33:34;;;;;;;9.25;6.80;;;;;;;17.44;57.07;100670.75;10465624;28;20072;-67
2022/07/11 22:38:36;;;;;;;9.50;7.43;;;;;;;17.24;57.56;100683.75;10447309;28;20488;-67
2022/07/11 22:43:38;;;;;;;7.72;6.63;;;;;;;17.11;57.84;100683.84;10462636;28;20048;-67
2022/07/11 22:48:39;;;;;;;8.43;7.13;;;;;;;17.06;58.11;100685.97;10464222;28;20182;-66
2022/07/11 22:53:41;;;;;;;8.80;6.50;;;;;;;16.90;58.25;100682.78;10464503;28;20076;-67
2022/07/11 22:58:43;;;;;;;8.73;6.80;;;;;;;16.95;58.11;100686.78;10464749;28;20540;-67
2022/07/11 23:03:44;;;;;;;8.93;7.63;;;;;;;16.90;58.40;100674.84;10445191;28;20049;-66
2022/07/11 23:08:46;;;;;;;9.25;8.20;;;;;;;16.55;58.69;100689.81;10467388;28;21079;-68
2022/07/11 23:13:48;;;;;;;10.02;8.40;;;;;;;16.23;59.80;100692.94;10472632;28;20699;-67
2022/07/11 23:18:50;;;;;;;8.77;7.63;;;;;;;16.24;59.57;100686.69;10471633;28;20576;-67
2022/07/11 23:23:51;;;;;;;9.48;8.10;;;;;;;16.27;59.53;100703.25;10468805;28;20549;-68
2022/07/11 23:28:53;;;;;;;7.95;6.80;;;;;;;16.31;59.70;100697.66;10468461;28;20552;-68
2022/07/11 23:33:55;;;;;;;8.38;7.28;;;;;;;16.39;59.41;100692.66;10447592;28;20136;-67
2022/07/11 23:38:57;;;;;;;10.32;7.28;;;;;;;16.41;58.83;100688.13;10471360;28;20088;-67